sensor_id;sensor_type;location;lat;lon;timestamp;temperature;humidity
4910;DHT22;2470;49.868;8.660;2022-12-29T00:02:09;11.30;99.90
4910;DHT22;2470;49.868;8.660;2022-12-29T00:04:35;11.40;99.90
4910;DHT22;2470;49.868;8.660;2022-12-29T00:07:01;11.40;99.90
4910;DHT22;2470;49.868;8.660;2022-12-29T00:09:26;11.40;99.90
4910;DHT22;2470;49.868;8.660;2022-12-29T00:11:52;11.40;99.90
4910;DHT22;2470;49.868;8.660;2022-12-29T00:14:19;11.40;99.90
4910;DHT22;2470;49.868;8.660;2022-12-29T00:17:03;11.40;99.90
4910;DHT22;2470;49.868;8.660;2022-12-29T00:19:29;11.40;99.90
4910;DHT22;2470;49.868;8.660;2022-12-29T00:22:14;11.40;99.90
4910;DHT22;2470;49.868;8.660;2022-12-29T00:24:59;11.40;99.90
4910;DHT22;2470;49.868;8.660;2022-12-29T00:27:31;11.30;99.90
4910;DHT22;2470;49.868;8.660;2022-12-29T00:30:22;11.30;99.90
4910;DHT22;2470;49.868;8.660;2022-12-29T00:33:19;11.30;99.90
4910;DHT22;2470;49.868;8.660;2022-12-29T00:36:06;11.30;99.90
4910;DHT22;2470;49.868;8.660;2022-12-29T00:38:37;11.30;99.90
4910;DHT22;2470;49.868;8.660;2022-12-29T00:41:21;11.30;99.90
4910;DHT22;2470;49.868;8.660;2022-12-29T00:44:07;11.30;99.90
4910;DHT22;2470;49.868;8.660;2022-12-29T00:46:40;11.20;99.90
4910;DHT22;2470;49.868;8.660;2022-12-29T00:49:07;11.10;99.90
4910;DHT22;2470;49.868;8.660;2022-12-29T00:51:52;11.10;99.90
4910;DHT22;2470;49.868;8.660;2022-12-29T00:54:19;11.10;99.90
4910;DHT22;2470;49.868;8.660;2022-12-29T00:56:48;11.10;99.90
4910;DHT22;2470;49.868;8.660;2022-12-29T00:59:14;11.10;99.90
4910;DHT22;2470;49.868;8.660;2022-12-29T01:01:40;11.10;99.90
4910;DHT22;2470;49.868;8.660;2022-12-29T01:04:06;11.10;99.90
4910;DHT22;2470;49.868;8.660;2022-12-29T01:06:33;11.10;99.90
4910;DHT22;2470;49.868;8.660;2022-12-29T01:08:59;11.00;99.90
4910;DHT22;2470;49.868;8.660;2022-12-29T01:11:43;11.10;99.90
4910;DHT22;2470;49.868;8.660;2022-12-29T01:14:09;11.10;99.90
4910;DHT22;2470;49.868;8.660;2022-12-29T01:16:34;11.10;99.90
4910;DHT22;2470;49.868;8.660;2022-12-29T01:19:02;11.00;99.90
4910;DHT22;2470;49.868;8.660;2022-12-29T01:21:28;10.90;99.90
4910;DHT22;2470;49.868;8.660;2022-12-29T01:23:53;10.90;99.90
4910;DHT22;2470;49.868;8.660;2022-12-29T01:26:19;11.00;99.90
4910;DHT22;2470;49.868;8.660;2022-12-29T01:28:44;11.00;99.90
4910;DHT22;2470;49.868;8.660;2022-12-29T01:31:12;11.00;99.90
4910;DHT22;2470;49.868;8.660;2022-12-29T01:33:38;11.10;99.90
4910;DHT22;2470;49.868;8.660;2022-12-29T01:36:09;11.10;99.90
4910;DHT22;2470;49.868;8.660;2022-12-29T01:38:36;11.20;99.90
4910;DHT22;2470;49.868;8.660;2022-12-29T01:41:03;11.20;99.90
4910;DHT22;2470;49.868;8.660;2022-12-29T01:43:51;11.20;99.90
4910;DHT22;2470;49.868;8.660;2022-12-29T01:46:41;11.30;99.90
4910;DHT22;2470;49.868;8.660;2022-12-29T01:51:40;11.30;99.90
4910;DHT22;2470;49.868;8.660;2022-12-29T01:54:18;11.40;99.90
4910;DHT22;2470;49.868;8.660;2022-12-29T01:56:45;11.40;99.90
4910;DHT22;2470;49.868;8.660;2022-12-29T01:59:15;11.40;99.90
4910;DHT22;2470;49.868;8.660;2022-12-29T02:01:42;11.50;99.90
4910;DHT22;2470;49.868;8.660;2022-12-29T02:04:09;11.50;99.90
4910;DHT22;2470;49.868;8.660;2022-12-29T02:06:48;11.50;99.90
4910;DHT22;2470;49.868;8.660;2022-12-29T02:09:15;11.50;99.90
4910;DHT22;2470;49.868;8.660;2022-12-29T02:11:40;11.60;99.90
4910;DHT22;2470;49.868;8.660;2022-12-29T02:14:10;11.60;99.90
4910;DHT22;2470;49.868;8.660;2022-12-29T02:22:21;11.60;99.90
4910;DHT22;2470;49.868;8.660;2022-12-29T02:30:34;11.70;99.90
4910;DHT22;2470;49.868;8.660;2022-12-29T02:33:21;11.70;99.90
4910;DHT22;2470;49.868;8.660;2022-12-29T02:38:49;11.70;99.90
4910;DHT22;2470;49.868;8.660;2022-12-29T02:41:24;11.70;99.90
4910;DHT22;2470;49.868;8.660;2022-12-29T02:46:41;11.70;99.90
4910;DHT22;2470;49.868;8.660;2022-12-29T02:49:22;11.60;99.90
4910;DHT22;2470;49.868;8.660;2022-12-29T02:51:55;11.60;99.90
4910;DHT22;2470;49.868;8.660;2022-12-29T02:54:23;11.50;99.90
4910;DHT22;2470;49.868;8.660;2022-12-29T02:57:26;11.50;99.90
4910;DHT22;2470;49.868;8.660;2022-12-29T03:05:37;11.50;99.90
4910;DHT22;2470;49.868;8.660;2022-12-29T03:11:03;11.60;99.90
4910;DHT22;2470;49.868;8.660;2022-12-29T03:13:42;11.60;99.90
4910;DHT22;2470;49.868;8.660;2022-12-29T03:16:32;11.60;99.90
4910;DHT22;2470;49.868;8.660;2022-12-29T03:19:22;11.60;99.90
4910;DHT22;2470;49.868;8.660;2022-12-29T03:21:55;11.60;99.90
4910;DHT22;2470;49.868;8.660;2022-12-29T03:24:43;11.60;99.90
4910;DHT22;2470;49.868;8.660;2022-12-29T03:27:13;11.60;99.90
4910;DHT22;2470;49.868;8.660;2022-12-29T03:29:46;11.70;99.90
4910;DHT22;2470;49.868;8.660;2022-12-29T03:32:13;11.70;99.90
4910;DHT22;2470;49.868;8.660;2022-12-29T03:34:40;11.70;99.90
4910;DHT22;2470;49.868;8.660;2022-12-29T03:37:14;11.70;99.90
4910;DHT22;2470;49.868;8.660;2022-12-29T03:39:41;11.70;99.90
4910;DHT22;2470;49.868;8.660;2022-12-29T03:42:12;11.70;99.90
4910;DHT22;2470;49.868;8.660;2022-12-29T03:44:41;11.60;99.90
4910;DHT22;2470;49.868;8.660;2022-12-29T03:47:07;11.60;99.90
4910;DHT22;2470;49.868;8.660;2022-12-29T03:49:34;11.60;99.90
4910;DHT22;2470;49.868;8.660;2022-12-29T03:52:00;11.60;99.90
4910;DHT22;2470;49.868;8.660;2022-12-29T03:54:26;11.60;99.90
4910;DHT22;2470;49.868;8.660;2022-12-29T03:56:51;11.60;99.90
4910;DHT22;2470;49.868;8.660;2022-12-29T03:59:16;11.60;99.90
4910;DHT22;2470;49.868;8.660;2022-12-29T04:01:42;11.60;99.90
4910;DHT22;2470;49.868;8.660;2022-12-29T04:04:08;11.60;99.90
4910;DHT22;2470;49.868;8.660;2022-12-29T04:06:34;11.70;99.90
4910;DHT22;2470;49.868;8.660;2022-12-29T04:09:00;11.70;99.90
4910;DHT22;2470;49.868;8.660;2022-12-29T04:11:26;11.70;99.90
4910;DHT22;2470;49.868;8.660;2022-12-29T04:13:52;11.70;99.90
4910;DHT22;2470;49.868;8.660;2022-12-29T04:16:17;11.70;99.90
4910;DHT22;2470;49.868;8.660;2022-12-29T04:18:43;11.70;99.90
4910;DHT22;2470;49.868;8.660;2022-12-29T04:21:08;11.70;99.90
4910;DHT22;2470;49.868;8.660;2022-12-29T04:23:36;11.70;99.90
4910;DHT22;2470;49.868;8.660;2022-12-29T04:26:02;11.80;99.90
4910;DHT22;2470;49.868;8.660;2022-12-29T04:28:28;11.70;99.90
4910;DHT22;2470;49.868;8.660;2022-12-29T04:30:54;11.70;99.90
4910;DHT22;2470;49.868;8.660;2022-12-29T04:33:20;11.70;99.90
4910;DHT22;2470;49.868;8.660;2022-12-29T04:35:46;11.70;99.90
4910;DHT22;2470;49.868;8.660;2022-12-29T04:38:13;11.70;99.90
4910;DHT22;2470;49.868;8.660;2022-12-29T04:40:40;11.70;99.90
4910;DHT22;2470;49.868;8.660;2022-12-29T04:43:06;11.70;99.90
4910;DHT22;2470;49.868;8.660;2022-12-29T04:45:32;11.70;99.90
4910;DHT22;2470;49.868;8.660;2022-12-29T04:47:58;11.70;99.90
4910;DHT22;2470;49.868;8.660;2022-12-29T04:50:23;11.70;99.90
4910;DHT22;2470;49.868;8.660;2022-12-29T04:52:49;11.80;99.90
4910;DHT22;2470;49.868;8.660;2022-12-29T04:55:14;11.80;99.90
4910;DHT22;2470;49.868;8.660;2022-12-29T04:57:42;11.80;99.90
4910;DHT22;2470;49.868;8.660;2022-12-29T05:00:08;11.80;99.90
4910;DHT22;2470;49.868;8.660;2022-12-29T05:02:35;11.80;99.90
4910;DHT22;2470;49.868;8.660;2022-12-29T05:05:01;11.80;99.90
4910;DHT22;2470;49.868;8.660;2022-12-29T05:07:26;11.90;99.90
4910;DHT22;2470;49.868;8.660;2022-12-29T05:09:52;11.90;99.90
4910;DHT22;2470;49.868;8.660;2022-12-29T05:12:18;11.90;99.90
4910;DHT22;2470;49.868;8.660;2022-12-29T05:14:43;11.90;99.90
4910;DHT22;2470;49.868;8.660;2022-12-29T05:17:09;11.90;99.90
4910;DHT22;2470;49.868;8.660;2022-12-29T05:19:34;11.90;99.90
4910;DHT22;2470;49.868;8.660;2022-12-29T05:22:00;11.90;99.90
4910;DHT22;2470;49.868;8.660;2022-12-29T05:24:25;12.00;99.90
4910;DHT22;2470;49.868;8.660;2022-12-29T05:26:51;12.00;99.90
4910;DHT22;2470;49.868;8.660;2022-12-29T05:29:16;12.00;99.90
4910;DHT22;2470;49.868;8.660;2022-12-29T05:31:42;11.90;99.90
4910;DHT22;2470;49.868;8.660;2022-12-29T05:34:12;12.00;99.90
4910;DHT22;2470;49.868;8.660;2022-12-29T05:36:38;12.00;99.90
4910;DHT22;2470;49.868;8.660;2022-12-29T05:39:04;12.00;99.90
4910;DHT22;2470;49.868;8.660;2022-12-29T05:41:30;12.00;99.90
4910;DHT22;2470;49.868;8.660;2022-12-29T05:43:55;12.00;99.90
4910;DHT22;2470;49.868;8.660;2022-12-29T05:46:21;12.00;99.90
4910;DHT22;2470;49.868;8.660;2022-12-29T05:48:46;12.00;99.90
4910;DHT22;2470;49.868;8.660;2022-12-29T05:51:12;12.00;99.90
4910;DHT22;2470;49.868;8.660;2022-12-29T05:53:37;12.00;99.90
4910;DHT22;2470;49.868;8.660;2022-12-29T05:56:03;12.00;99.90
4910;DHT22;2470;49.868;8.660;2022-12-29T05:58:29;12.00;99.90
4910;DHT22;2470;49.868;8.660;2022-12-29T06:00:54;12.00;99.90
4910;DHT22;2470;49.868;8.660;2022-12-29T06:03:20;12.00;99.90
4910;DHT22;2470;49.868;8.660;2022-12-29T06:05:46;12.00;99.90
4910;DHT22;2470;49.868;8.660;2022-12-29T06:08:12;12.00;99.90
4910;DHT22;2470;49.868;8.660;2022-12-29T06:10:37;12.00;99.90
4910;DHT22;2470;49.868;8.660;2022-12-29T06:13:03;12.00;99.90
4910;DHT22;2470;49.868;8.660;2022-12-29T06:15:31;12.00;99.90
4910;DHT22;2470;49.868;8.660;2022-12-29T06:17:56;12.00;99.90
4910;DHT22;2470;49.868;8.660;2022-12-29T06:20:22;12.00;99.90
4910;DHT22;2470;49.868;8.660;2022-12-29T06:22:48;12.00;99.90
4910;DHT22;2470;49.868;8.660;2022-12-29T06:25:14;12.00;99.90
4910;DHT22;2470;49.868;8.660;2022-12-29T06:27:40;12.00;99.90
4910;DHT22;2470;49.868;8.660;2022-12-29T06:30:06;12.00;99.90
4910;DHT22;2470;49.868;8.660;2022-12-29T06:32:31;12.00;99.90
4910;DHT22;2470;49.868;8.660;2022-12-29T06:34:57;12.00;99.90
4910;DHT22;2470;49.868;8.660;2022-12-29T06:37:22;11.90;99.90
4910;DHT22;2470;49.868;8.660;2022-12-29T06:39:48;12.00;99.90
4910;DHT22;2470;49.868;8.660;2022-12-29T06:42:13;11.90;99.90
4910;DHT22;2470;49.868;8.660;2022-12-29T06:44:39;11.90;99.90
4910;DHT22;2470;49.868;8.660;2022-12-29T06:47:04;12.00;99.90
4910;DHT22;2470;49.868;8.660;2022-12-29T06:49:30;12.00;99.90
4910;DHT22;2470;49.868;8.660;2022-12-29T06:51:55;12.00;99.90
4910;DHT22;2470;49.868;8.660;2022-12-29T06:54:23;12.00;99.90
4910;DHT22;2470;49.868;8.660;2022-12-29T06:56:48;12.00;99.90
4910;DHT22;2470;49.868;8.660;2022-12-29T06:59:14;12.00;99.90
4910;DHT22;2470;49.868;8.660;2022-12-29T07:01:39;12.00;99.90
4910;DHT22;2470;49.868;8.660;2022-12-29T07:04:05;11.90;99.90
4910;DHT22;2470;49.868;8.660;2022-12-29T07:06:31;12.00;99.90
4910;DHT22;2470;49.868;8.660;2022-12-29T07:08:56;12.00;99.90
4910;DHT22;2470;49.868;8.660;2022-12-29T07:11:29;12.00;99.90
4910;DHT22;2470;49.868;8.660;2022-12-29T07:14:01;12.00;99.90
4910;DHT22;2470;49.868;8.660;2022-12-29T07:16:26;12.10;99.90
4910;DHT22;2470;49.868;8.660;2022-12-29T07:18:54;12.10;99.90
4910;DHT22;2470;49.868;8.660;2022-12-29T07:21:20;12.10;99.90
4910;DHT22;2470;49.868;8.660;2022-12-29T07:23:45;12.10;99.90
4910;DHT22;2470;49.868;8.660;2022-12-29T07:26:13;12.10;99.90
4910;DHT22;2470;49.868;8.660;2022-12-29T07:28:39;12.10;99.90
4910;DHT22;2470;49.868;8.660;2022-12-29T07:31:05;12.10;99.90
4910;DHT22;2470;49.868;8.660;2022-12-29T07:33:32;12.10;99.90
4910;DHT22;2470;49.868;8.660;2022-12-29T07:35:58;12.10;99.90
4910;DHT22;2470;49.868;8.660;2022-12-29T07:38:23;12.10;99.90
4910;DHT22;2470;49.868;8.660;2022-12-29T07:40:49;12.10;99.90
4910;DHT22;2470;49.868;8.660;2022-12-29T07:43:15;12.10;99.90
4910;DHT22;2470;49.868;8.660;2022-12-29T07:45:40;12.10;99.90
4910;DHT22;2470;49.868;8.660;2022-12-29T07:48:06;12.00;99.90
4910;DHT22;2470;49.868;8.660;2022-12-29T07:50:35;12.00;99.90
4910;DHT22;2470;49.868;8.660;2022-12-29T07:53:01;12.00;99.90
4910;DHT22;2470;49.868;8.660;2022-12-29T07:55:27;12.00;99.90
4910;DHT22;2470;49.868;8.660;2022-12-29T07:57:53;12.00;99.90
4910;DHT22;2470;49.868;8.660;2022-12-29T08:00:20;12.00;99.90
4910;DHT22;2470;49.868;8.660;2022-12-29T08:02:45;12.00;99.90
4910;DHT22;2470;49.868;8.660;2022-12-29T08:05:11;12.00;99.90
4910;DHT22;2470;49.868;8.660;2022-12-29T08:07:36;12.00;99.90
4910;DHT22;2470;49.868;8.660;2022-12-29T08:10:02;12.10;99.90
4910;DHT22;2470;49.868;8.660;2022-12-29T08:12:28;12.10;99.90
4910;DHT22;2470;49.868;8.660;2022-12-29T08:14:54;12.10;99.90
4910;DHT22;2470;49.868;8.660;2022-12-29T08:17:19;12.20;99.90
4910;DHT22;2470;49.868;8.660;2022-12-29T08:19:45;12.20;99.90
4910;DHT22;2470;49.868;8.660;2022-12-29T08:22:11;12.10;99.90
4910;DHT22;2470;49.868;8.660;2022-12-29T08:24:38;12.20;99.90
4910;DHT22;2470;49.868;8.660;2022-12-29T08:27:03;12.30;99.90
4910;DHT22;2470;49.868;8.660;2022-12-29T08:29:29;12.30;99.90
4910;DHT22;2470;49.868;8.660;2022-12-29T08:31:54;12.30;99.90
4910;DHT22;2470;49.868;8.660;2022-12-29T08:34:20;12.20;99.90
4910;DHT22;2470;49.868;8.660;2022-12-29T08:36:45;12.30;99.90
4910;DHT22;2470;49.868;8.660;2022-12-29T08:39:11;12.30;99.90
4910;DHT22;2470;49.868;8.660;2022-12-29T08:41:36;12.30;99.90
4910;DHT22;2470;49.868;8.660;2022-12-29T08:44:02;12.30;99.90
4910;DHT22;2470;49.868;8.660;2022-12-29T08:46:27;12.30;99.90
4910;DHT22;2470;49.868;8.660;2022-12-29T08:48:53;12.30;99.90
4910;DHT22;2470;49.868;8.660;2022-12-29T08:51:19;12.30;99.90
4910;DHT22;2470;49.868;8.660;2022-12-29T08:53:48;12.30;99.90
4910;DHT22;2470;49.868;8.660;2022-12-29T08:56:14;12.30;99.90
4910;DHT22;2470;49.868;8.660;2022-12-29T08:58:39;12.30;99.90
4910;DHT22;2470;49.868;8.660;2022-12-29T09:01:05;12.30;99.90
4910;DHT22;2470;49.868;8.660;2022-12-29T09:03:31;12.30;99.90
4910;DHT22;2470;49.868;8.660;2022-12-29T09:05:57;12.30;99.90
4910;DHT22;2470;49.868;8.660;2022-12-29T09:08:22;12.30;99.90
4910;DHT22;2470;49.868;8.660;2022-12-29T09:10:48;12.30;99.90
4910;DHT22;2470;49.868;8.660;2022-12-29T09:13:14;12.30;99.90
4910;DHT22;2470;49.868;8.660;2022-12-29T09:15:41;12.30;99.90
4910;DHT22;2470;49.868;8.660;2022-12-29T09:18:08;12.30;99.90
4910;DHT22;2470;49.868;8.660;2022-12-29T09:20:34;12.30;99.90
4910;DHT22;2470;49.868;8.660;2022-12-29T09:22:59;12.30;99.90
4910;DHT22;2470;49.868;8.660;2022-12-29T09:25:25;12.30;99.90
4910;DHT22;2470;49.868;8.660;2022-12-29T09:27:52;12.30;99.90
4910;DHT22;2470;49.868;8.660;2022-12-29T09:30:20;12.40;99.90
4910;DHT22;2470;49.868;8.660;2022-12-29T09:32:46;12.40;99.90
4910;DHT22;2470;49.868;8.660;2022-12-29T09:35:12;12.50;99.90
4910;DHT22;2470;49.868;8.660;2022-12-29T09:37:38;12.50;99.90
4910;DHT22;2470;49.868;8.660;2022-12-29T09:40:04;12.50;99.90
4910;DHT22;2470;49.868;8.660;2022-12-29T09:42:53;12.60;99.90
4910;DHT22;2470;49.868;8.660;2022-12-29T09:47:52;12.80;99.90
4910;DHT22;2470;49.868;8.660;2022-12-29T09:50:30;12.80;99.90
4910;DHT22;2470;49.868;8.660;2022-12-29T09:53:10;12.90;99.90
4910;DHT22;2470;49.868;8.660;2022-12-29T09:55:45;13.00;99.90
4910;DHT22;2470;49.868;8.660;2022-12-29T09:58:47;13.00;99.90
4910;DHT22;2470;49.868;8.660;2022-12-29T10:03:46;13.10;99.90
4910;DHT22;2470;49.868;8.660;2022-12-29T10:12:26;13.30;99.90
4910;DHT22;2470;49.868;8.660;2022-12-29T10:15:02;13.30;99.90
4910;DHT22;2470;49.868;8.660;2022-12-29T10:25:47;13.30;99.90
4910;DHT22;2470;49.868;8.660;2022-12-29T10:28:22;13.30;99.90
4910;DHT22;2470;49.868;8.660;2022-12-29T10:30:49;13.00;99.90
4910;DHT22;2470;49.868;8.660;2022-12-29T10:33:19;12.90;99.90
4910;DHT22;2470;49.868;8.660;2022-12-29T10:35:50;12.70;99.90
4910;DHT22;2470;49.868;8.660;2022-12-29T10:38:30;12.50;99.90
4910;DHT22;2470;49.868;8.660;2022-12-29T10:41:08;12.10;99.90
4910;DHT22;2470;49.868;8.660;2022-12-29T10:43:49;11.60;99.90
4910;DHT22;2470;49.868;8.660;2022-12-29T10:46:32;11.00;99.90
4910;DHT22;2470;49.868;8.660;2022-12-29T10:48:59;10.70;99.90
4910;DHT22;2470;49.868;8.660;2022-12-29T10:51:28;10.50;99.90
4910;DHT22;2470;49.868;8.660;2022-12-29T10:53:58;10.40;99.90
4910;DHT22;2470;49.868;8.660;2022-12-29T10:56:42;10.40;99.90
4910;DHT22;2470;49.868;8.660;2022-12-29T10:59:20;10.30;99.90
4910;DHT22;2470;49.868;8.660;2022-12-29T11:02:05;10.40;99.90
4910;DHT22;2470;49.868;8.660;2022-12-29T11:04:57;10.30;99.90
4910;DHT22;2470;49.868;8.660;2022-12-29T11:07:27;10.30;99.90
4910;DHT22;2470;49.868;8.660;2022-12-29T11:09:53;10.30;99.90
4910;DHT22;2470;49.868;8.660;2022-12-29T11:14:46;10.50;99.90
4910;DHT22;2470;49.868;8.660;2022-12-29T11:17:15;10.60;99.90
4910;DHT22;2470;49.868;8.660;2022-12-29T11:19:42;10.70;99.90
4910;DHT22;2470;49.868;8.660;2022-12-29T11:22:27;10.80;99.90
4910;DHT22;2470;49.868;8.660;2022-12-29T11:24:54;10.80;99.90
4910;DHT22;2470;49.868;8.660;2022-12-29T11:27:24;10.90;99.90
4910;DHT22;2470;49.868;8.660;2022-12-29T11:29:53;10.90;99.90
4910;DHT22;2470;49.868;8.660;2022-12-29T11:32:24;11.00;99.90
4910;DHT22;2470;49.868;8.660;2022-12-29T11:34:49;11.00;99.90
4910;DHT22;2470;49.868;8.660;2022-12-29T11:37:28;11.00;99.90
4910;DHT22;2470;49.868;8.660;2022-12-29T11:40:00;10.90;99.90
4910;DHT22;2470;49.868;8.660;2022-12-29T11:42:48;10.90;99.90
4910;DHT22;2470;49.868;8.660;2022-12-29T11:45:34;11.00;99.90
4910;DHT22;2470;49.868;8.660;2022-12-29T11:48:07;11.00;99.90
4910;DHT22;2470;49.868;8.660;2022-12-29T11:50:39;11.00;99.90
4910;DHT22;2470;49.868;8.660;2022-12-29T11:53:22;11.00;99.90
4910;DHT22;2470;49.868;8.660;2022-12-29T11:55:54;11.10;99.90
4910;DHT22;2470;49.868;8.660;2022-12-29T11:58:27;11.10;99.90
4910;DHT22;2470;49.868;8.660;2022-12-29T12:00:53;11.20;99.90
4910;DHT22;2470;49.868;8.660;2022-12-29T12:03:22;11.20;99.90
4910;DHT22;2470;49.868;8.660;2022-12-29T12:05:56;11.10;99.90
4910;DHT22;2470;49.868;8.660;2022-12-29T12:11:24;11.20;99.90
4910;DHT22;2470;49.868;8.660;2022-12-29T12:14:07;11.20;99.90
4910;DHT22;2470;49.868;8.660;2022-12-29T12:16:39;11.20;99.90
4910;DHT22;2470;49.868;8.660;2022-12-29T12:19:19;11.20;99.90
4910;DHT22;2470;49.868;8.660;2022-12-29T12:21:50;11.20;99.90
4910;DHT22;2470;49.868;8.660;2022-12-29T12:29:50;11.30;99.90
4910;DHT22;2470;49.868;8.660;2022-12-29T12:34:51;11.40;99.90
4910;DHT22;2470;49.868;8.660;2022-12-29T12:43:18;11.50;99.90
4910;DHT22;2470;49.868;8.660;2022-12-29T12:46:00;11.50;99.90
4910;DHT22;2470;49.868;8.660;2022-12-29T13:00:19;11.50;99.90
4910;DHT22;2470;49.868;8.660;2022-12-29T13:02:52;11.60;99.90
4910;DHT22;2470;49.868;8.660;2022-12-29T13:13:54;11.60;99.90
4910;DHT22;2470;49.868;8.660;2022-12-29T13:22:17;11.70;99.90
4910;DHT22;2470;49.868;8.660;2022-12-29T13:25:14;11.60;99.90
4910;DHT22;2470;49.868;8.660;2022-12-29T13:28:00;11.60;99.90
4910;DHT22;2470;49.868;8.660;2022-12-29T13:33:32;11.80;99.90
4910;DHT22;2470;49.868;8.660;2022-12-29T13:36:09;11.80;99.90
4910;DHT22;2470;49.868;8.660;2022-12-29T13:38:53;11.70;99.90
4910;DHT22;2470;49.868;8.660;2022-12-29T13:41:30;11.70;99.90
4910;DHT22;2470;49.868;8.660;2022-12-29T13:43:58;11.60;99.90
4910;DHT22;2470;49.868;8.660;2022-12-29T13:46:31;11.60;99.90
4910;DHT22;2470;49.868;8.660;2022-12-29T13:49:04;11.60;99.90
4910;DHT22;2470;49.868;8.660;2022-12-29T13:51:32;11.60;99.90
4910;DHT22;2470;49.868;8.660;2022-12-29T13:54:04;11.60;99.90
4910;DHT22;2470;49.868;8.660;2022-12-29T13:57:08;11.60;99.90
4910;DHT22;2470;49.868;8.660;2022-12-29T13:59:52;11.60;99.90
4910;DHT22;2470;49.868;8.660;2022-12-29T14:02:27;11.70;99.90
4910;DHT22;2470;49.868;8.660;2022-12-29T14:04:58;11.70;99.90
4910;DHT22;2470;49.868;8.660;2022-12-29T14:07:24;11.70;99.90
4910;DHT22;2470;49.868;8.660;2022-12-29T14:09:57;11.70;99.90
4910;DHT22;2470;49.868;8.660;2022-12-29T14:12:40;11.70;99.90
4910;DHT22;2470;49.868;8.660;2022-12-29T14:17:35;11.70;99.90
4910;DHT22;2470;49.868;8.660;2022-12-29T14:20:03;11.80;99.90
4910;DHT22;2470;49.868;8.660;2022-12-29T14:22:29;11.90;99.90
4910;DHT22;2470;49.868;8.660;2022-12-29T14:24:55;11.80;99.90
4910;DHT22;2470;49.868;8.660;2022-12-29T14:29:51;11.90;99.90
4910;DHT22;2470;49.868;8.660;2022-12-29T14:34:56;11.90;99.90
4910;DHT22;2470;49.868;8.660;2022-12-29T14:37:36;11.90;99.90
4910;DHT22;2470;49.868;8.660;2022-12-29T14:40:23;12.00;99.90
4910;DHT22;2470;49.868;8.660;2022-12-29T14:42:52;12.10;99.90
4910;DHT22;2470;49.868;8.660;2022-12-29T14:45:27;12.10;99.90
4910;DHT22;2470;49.868;8.660;2022-12-29T14:47:53;12.10;99.90
4910;DHT22;2470;49.868;8.660;2022-12-29T14:50:33;12.10;99.90
4910;DHT22;2470;49.868;8.660;2022-12-29T14:53:04;12.20;99.90
4910;DHT22;2470;49.868;8.660;2022-12-29T14:55:46;12.10;99.90
4910;DHT22;2470;49.868;8.660;2022-12-29T14:58:22;12.20;99.90
4910;DHT22;2470;49.868;8.660;2022-12-29T15:00:50;12.20;99.90
4910;DHT22;2470;49.868;8.660;2022-12-29T15:03:25;12.20;99.90
4910;DHT22;2470;49.868;8.660;2022-12-29T15:05:58;12.30;99.90
4910;DHT22;2470;49.868;8.660;2022-12-29T15:08:26;12.40;99.90
4910;DHT22;2470;49.868;8.660;2022-12-29T15:11:15;12.30;99.90
4910;DHT22;2470;49.868;8.660;2022-12-29T15:13:43;12.30;99.90
4910;DHT22;2470;49.868;8.660;2022-12-29T15:16:29;12.20;99.90
4910;DHT22;2470;49.868;8.660;2022-12-29T15:18:57;12.20;99.90
4910;DHT22;2470;49.868;8.660;2022-12-29T15:21:31;12.10;99.90
4910;DHT22;2470;49.868;8.660;2022-12-29T15:23:57;12.00;99.90
4910;DHT22;2470;49.868;8.660;2022-12-29T15:26:23;12.00;99.90
4910;DHT22;2470;49.868;8.660;2022-12-29T15:29:01;11.90;99.90
4910;DHT22;2470;49.868;8.660;2022-12-29T15:31:26;11.80;99.90
4910;DHT22;2470;49.868;8.660;2022-12-29T15:34:01;11.80;99.90
4910;DHT22;2470;49.868;8.660;2022-12-29T15:36:28;11.70;99.90
4910;DHT22;2470;49.868;8.660;2022-12-29T15:38:55;11.70;99.90
4910;DHT22;2470;49.868;8.660;2022-12-29T15:41:35;11.60;99.90
4910;DHT22;2470;49.868;8.660;2022-12-29T15:44:38;11.50;99.90
4910;DHT22;2470;49.868;8.660;2022-12-29T15:47:13;11.50;99.90
4910;DHT22;2470;49.868;8.660;2022-12-29T15:49:42;11.40;99.90
4910;DHT22;2470;49.868;8.660;2022-12-29T15:52:09;11.30;99.90
4910;DHT22;2470;49.868;8.660;2022-12-29T15:54:36;11.30;99.90
4910;DHT22;2470;49.868;8.660;2022-12-29T15:57:02;11.30;99.90
4910;DHT22;2470;49.868;8.660;2022-12-29T15:59:31;11.30;99.90
4910;DHT22;2470;49.868;8.660;2022-12-29T16:01:58;11.20;99.90
4910;DHT22;2470;49.868;8.660;2022-12-29T16:04:26;11.20;99.90
4910;DHT22;2470;49.868;8.660;2022-12-29T16:07:01;11.20;99.90
4910;DHT22;2470;49.868;8.660;2022-12-29T16:09:34;11.10;99.90
4910;DHT22;2470;49.868;8.660;2022-12-29T16:12:03;11.00;99.90
4910;DHT22;2470;49.868;8.660;2022-12-29T16:14:50;11.00;99.90
4910;DHT22;2470;49.868;8.660;2022-12-29T16:17:21;11.00;99.90
4910;DHT22;2470;49.868;8.660;2022-12-29T16:19:54;10.90;99.90
4910;DHT22;2470;49.868;8.660;2022-12-29T16:22:27;10.90;99.90
4910;DHT22;2470;49.868;8.660;2022-12-29T16:27:58;10.80;99.90
4910;DHT22;2470;49.868;8.660;2022-12-29T16:30:30;10.80;99.90
4910;DHT22;2470;49.868;8.660;2022-12-29T16:32:59;10.80;99.90
4910;DHT22;2470;49.868;8.660;2022-12-29T16:35:38;10.80;99.90
4910;DHT22;2470;49.868;8.660;2022-12-29T16:38:31;10.80;99.90
4910;DHT22;2470;49.868;8.660;2022-12-29T16:41:00;10.80;99.90
4910;DHT22;2470;49.868;8.660;2022-12-29T16:46:25;10.80;99.90
4910;DHT22;2470;49.868;8.660;2022-12-29T16:48:53;10.80;99.90
4910;DHT22;2470;49.868;8.660;2022-12-29T16:51:36;10.80;99.90
4910;DHT22;2470;49.868;8.660;2022-12-29T16:54:03;10.80;99.90
4910;DHT22;2470;49.868;8.660;2022-12-29T16:56:34;10.80;99.90
4910;DHT22;2470;49.868;8.660;2022-12-29T16:59:09;10.80;99.90
4910;DHT22;2470;49.868;8.660;2022-12-29T17:01:43;10.80;99.90
4910;DHT22;2470;49.868;8.660;2022-12-29T17:04:11;10.80;99.90
4910;DHT22;2470;49.868;8.660;2022-12-29T17:06:37;10.70;99.90
4910;DHT22;2470;49.868;8.660;2022-12-29T17:09:12;10.70;99.90
4910;DHT22;2470;49.868;8.660;2022-12-29T17:11:41;10.70;99.90
4910;DHT22;2470;49.868;8.660;2022-12-29T17:16:52;10.70;99.90
4910;DHT22;2470;49.868;8.660;2022-12-29T17:19:20;10.70;99.90
4910;DHT22;2470;49.868;8.660;2022-12-29T17:21:46;10.70;99.90
4910;DHT22;2470;49.868;8.660;2022-12-29T17:24:15;10.70;99.90
4910;DHT22;2470;49.868;8.660;2022-12-29T17:26:44;10.70;99.90
4910;DHT22;2470;49.868;8.660;2022-12-29T17:29:21;10.60;99.90
4910;DHT22;2470;49.868;8.660;2022-12-29T17:31:50;10.60;99.90
4910;DHT22;2470;49.868;8.660;2022-12-29T17:34:15;10.60;99.90
4910;DHT22;2470;49.868;8.660;2022-12-29T17:36:41;10.60;99.90
4910;DHT22;2470;49.868;8.660;2022-12-29T17:39:08;10.60;99.90
4910;DHT22;2470;49.868;8.660;2022-12-29T17:41:35;10.60;99.90
4910;DHT22;2470;49.868;8.660;2022-12-29T17:44:01;10.60;99.90
4910;DHT22;2470;49.868;8.660;2022-12-29T17:46:27;10.60;99.90
4910;DHT22;2470;49.868;8.660;2022-12-29T17:48:52;10.60;99.90
4910;DHT22;2470;49.868;8.660;2022-12-29T17:51:20;10.60;99.90
4910;DHT22;2470;49.868;8.660;2022-12-29T17:53:46;10.60;99.90
4910;DHT22;2470;49.868;8.660;2022-12-29T17:56:11;10.60;99.90
4910;DHT22;2470;49.868;8.660;2022-12-29T17:58:37;10.50;99.90
4910;DHT22;2470;49.868;8.660;2022-12-29T18:01:03;10.50;99.90
4910;DHT22;2470;49.868;8.660;2022-12-29T18:03:35;10.50;99.90
4910;DHT22;2470;49.868;8.660;2022-12-29T18:06:01;10.50;99.90
4910;DHT22;2470;49.868;8.660;2022-12-29T18:08:28;10.50;99.90
4910;DHT22;2470;49.868;8.660;2022-12-29T18:10:55;10.50;99.90
4910;DHT22;2470;49.868;8.660;2022-12-29T18:13:26;10.50;99.90
4910;DHT22;2470;49.868;8.660;2022-12-29T18:15:52;10.50;99.90